Time;durP1;ratioP1;P1;durP2;ratioP2;P2;SDS_P1;SDS_P2;PMS_P1;PMS_P2;Temp;Humidity;BMP_temperature;BMP_pressure;BME280_temperature;BME280_humidity;BME280_pressure;Samples;Min_cycle;Max_cycle;Signal;HPM_P1;HPM_P2
2022/12/24 00:00:28;;;;;;;9.27;3.80;;;9.30;99.90;;;;;;2563043;23;20005;-74
2022/12/24 00:01:29;;;;;;;11.70;4.10;;;9.30;99.90;;;;;;2562697;23;19997;-74
2022/12/24 00:02:29;;;;;;;6.70;3.75;;;9.20;99.90;;;;;;2551451;23;20000;-73
2022/12/24 00:03:30;;;;;;;6.03;3.38;;;9.20;99.90;;;;;;2537243;23;20020;-74
2022/12/24 00:04:30;;;;;;;6.13;3.75;;;9.20;99.90;;;;;;2549612;23;20541;-74
2022/12/24 00:05:31;;;;;;;7.07;3.60;;;9.20;99.90;;;;;;2562320;23;20004;-74
2022/12/24 00:06:32;;;;;;;7.72;3.65;;;9.20;99.90;;;;;;2564395;23;20508;-74
2022/12/24 00:07:32;;;;;;;11.52;4.10;;;9.20;99.90;;;;;;2537284;23;20081;-74
2022/12/24 00:08:33;;;;;;;10.00;4.03;;;9.20;99.90;;;;;;2537396;23;20009;-73
2022/12/24 00:09:33;;;;;;;14.57;4.30;;;9.20;99.90;;;;;;2549982;23;20060;-76
2022/12/24 00:10:34;;;;;;;7.50;4.13;;;9.20;99.90;;;;;;2549760;23;20033;-73
2022/12/24 00:11:34;;;;;;;10.85;4.32;;;9.20;99.90;;;;;;2565192;23;20008;-72
2022/12/24 00:12:36;;;;;;;11.40;4.35;;;9.20;99.90;;;;;;2537404;23;20013;-73
2022/12/24 00:13:36;;;;;;;12.95;4.47;;;9.20;99.90;;;;;;2525278;23;20033;-73
2022/12/24 00:14:37;;;;;;;11.85;4.70;;;9.20;99.90;;;;;;2549737;23;20200;-72
2022/12/24 00:15:37;;;;;;;12.75;4.88;;;9.20;99.90;;;;;;2564811;23;20043;-73
2022/12/24 00:16:38;;;;;;;12.32;4.13;;;9.10;99.90;;;;;;2548946;23;19997;-73
2022/12/24 00:17:38;;;;;;;11.00;4.07;;;9.10;99.90;;;;;;2563044;23;20500;-74
2022/12/24 00:18:39;;;;;;;13.27;4.93;;;9.20;99.90;;;;;;2549352;23;20013;-74
2022/12/24 00:19:41;;;;;;;12.65;4.70;;;9.10;99.90;;;;;;2537487;23;20448;-74
2022/12/24 00:20:49;;;;;;;10.73;4.53;;;9.10;99.90;;;;;;2552132;23;20013;-73
2022/12/24 00:21:49;;;;;;;9.85;4.40;;;9.10;99.90;;;;;;2551925;23;20044;-73
2022/12/24 00:22:50;;;;;;;9.82;4.20;;;9.10;99.90;;;;;;2550312;23;20017;-73
2022/12/24 00:23:51;;;;;;;11.48;4.75;;;9.10;99.90;;;;;;2550089;23;20056;-73
2022/12/24 00:24:51;;;;;;;9.50;4.43;;;9.10;99.90;;;;;;2549708;23;20036;-73
2022/12/24 00:25:52;;;;;;;8.10;4.10;;;9.10;99.90;;;;;;2552028;23;20048;-73
2022/12/24 00:26:53;;;;;;;11.57;4.47;;;9.10;99.90;;;;;;2549738;23;20005;-73
2022/12/24 00:27:53;;;;;;;7.75;3.92;;;9.10;99.90;;;;;;2563119;23;20646;-73
2022/12/24 00:28:54;;;;;;;12.30;4.30;;;9.10;99.90;;;;;;2562832;23;20001;-74
2022/12/24 00:29:55;;;;;;;11.70;4.53;;;9.00;99.90;;;;;;2549725;23;20037;-73
2022/12/24 00:30:55;;;;;;;11.98;4.60;;;9.10;99.90;;;;;;2539424;23;20030;-73
2022/12/24 00:31:56;;;;;;;10.95;4.50;;;9.10;99.90;;;;;;2548944;23;20008;-73
2022/12/24 00:32:56;;;;;;;11.07;4.45;;;9.00;99.90;;;;;;2563155;23;20008;-73
2022/12/24 00:33:57;;;;;;;10.65;4.82;;;9.10;99.90;;;;;;2549787;23;20009;-73
2022/12/24 00:34:57;;;;;;;13.13;5.03;;;9.10;99.90;;;;;;2539678;23;20353;-72
2022/12/24 00:36:01;;;;;;;13.27;4.78;;;9.10;99.90;;;;;;2537770;23;20109;-73
2022/12/24 00:37:03;;;;;;;12.43;4.72;;;9.10;99.90;;;;;;2538117;23;20001;-73
2022/12/24 00:38:03;;;;;;;14.77;4.47;;;9.10;99.90;;;;;;2537616;23;20017;-74
2022/12/24 00:39:04;;;;;;;9.13;4.30;;;9.10;99.90;;;;;;2552087;23;20383;-74
2022/12/24 00:40:05;;;;;;;10.38;4.55;;;9.10;99.90;;;;;;2562497;23;20315;-72
2022/12/24 00:41:23;;;;;;;12.27;4.50;;;9.20;99.90;;;;;;2562371;23;20095;-71
2022/12/24 00:42:23;;;;;;;10.82;4.60;;;9.20;99.90;;;;;;2537179;23;20006;-72
2022/12/24 00:43:24;;;;;;;8.93;4.47;;;9.20;99.90;;;;;;2536587;23;20049;-72
2022/12/24 00:44:24;;;;;;;8.50;4.07;;;9.20;99.90;;;;;;2537020;23;20002;-72
2022/12/24 00:45:28;;;;;;;12.85;4.80;;;9.20;99.90;;;;;;2532511;23;20014;-72
2022/12/24 00:46:30;;;;;;;10.93;4.18;;;9.10;99.90;;;;;;2564110;23;20001;-72
2022/12/24 00:47:30;;;;;;;8.98;4.57;;;9.10;99.90;;;;;;2551283;23;20096;-72
2022/12/24 00:48:31;;;;;;;10.55;4.32;;;9.10;99.90;;;;;;2537132;23;20031;-72
2022/12/24 00:49:32;;;;;;;12.88;4.53;;;9.10;99.90;;;;;;2537212;23;20005;-73
2022/12/24 00:50:32;;;;;;;9.98;4.38;;;9.00;99.90;;;;;;2539474;23;20001;-72
2022/12/24 00:51:34;;;;;;;14.27;5.05;;;9.00;99.90;;;;;;2549233;23;20015;-73
2022/12/24 00:52:35;;;;;;;10.80;4.65;;;9.00;99.90;;;;;;2549610;23;20037;-73
2022/12/24 00:53:35;;;;;;;10.05;4.60;;;9.00;99.90;;;;;;2562573;23;20007;-72
2022/12/24 00:54:36;;;;;;;11.70;4.13;;;9.00;99.90;;;;;;2562443;23;20015;-73
2022/12/24 00:55:36;;;;;;;14.45;4.60;;;9.00;99.90;;;;;;2551547;23;20088;-73
2022/12/24 00:56:37;;;;;;;13.60;5.07;;;9.00;99.90;;;;;;2549521;23;20412;-73
2022/12/24 00:57:38;;;;;;;11.80;4.90;;;9.00;99.90;;;;;;2562678;23;20009;-72
2022/12/24 00:58:38;;;;;;;13.15;4.93;;;9.00;99.90;;;;;;2549490;23;20013;-73
2022/12/24 00:59:39;;;;;;;13.43;4.90;;;9.00;99.90;;;;;;2527109;23;20009;-73
2022/12/24 01:00:39;;;;;;;11.70;4.88;;;9.00;99.90;;;;;;2537348;23;20314;-73
2022/12/24 01:01:40;;;;;;;10.38;4.80;;;9.00;99.90;;;;;;2561823;23;20011;-73
2022/12/24 01:02:40;;;;;;;12.07;4.60;;;8.90;99.90;;;;;;2562854;23;20004;-72
2022/12/24 01:03:41;;;;;;;13.73;4.63;;;8.90;99.90;;;;;;2562500;23;20004;-73
2022/12/24 01:06:16;;;;;;;11.93;4.70;;;8.90;99.90;;;;;;2549335;23;20021;-73
2022/12/24 01:07:17;;;;;;;11.15;4.75;;;8.80;99.90;;;;;;2539355;23;20069;-72
2022/12/24 01:08:18;;;;;;;10.75;4.57;;;8.80;99.90;;;;;;2549503;23;20473;-73
2022/12/24 01:09:18;;;;;;;13.82;4.63;;;8.80;99.90;;;;;;2551736;23;20001;-72
2022/12/24 01:10:19;;;;;;;15.68;4.50;;;8.80;99.90;;;;;;2549306;23;20021;-72
2022/12/24 01:11:20;;;;;;;19.65;5.00;;;8.80;99.90;;;;;;2562553;23;20221;-72
2022/12/24 01:12:20;;;;;;;14.40;4.75;;;8.80;99.90;;;;;;2549486;23;20013;-74
2022/12/24 01:13:21;;;;;;;14.93;5.10;;;8.80;99.90;;;;;;2549319;23;19997;-74
2022/12/24 01:14:22;;;;;;;15.27;5.25;;;8.80;99.90;;;;;;2551477;23;20059;-74
2022/12/24 01:15:23;;;;;;;14.88;4.93;;;8.80;99.90;;;;;;2549093;23;20417;-74
2022/12/24 01:16:23;;;;;;;19.92;5.60;;;8.80;99.90;;;;;;2561941;23;20005;-74
2022/12/24 01:17:24;;;;;;;18.58;5.47;;;8.80;99.90;;;;;;2549135;23;20005;-74
2022/12/24 01:18:24;;;;;;;23.02;5.50;;;8.70;99.90;;;;;;2538775;23;20033;-73
2022/12/24 01:19:25;;;;;;;15.23;5.65;;;8.70;99.90;;;;;;2549320;23;20609;-74
2022/12/24 01:20:30;;;;;;;19.75;5.53;;;8.70;99.90;;;;;;2549368;23;20008;-74
2022/12/24 01:21:30;;;;;;;19.27;5.70;;;8.70;99.90;;;;;;2549200;23;20020;-73
2022/12/24 01:22:31;;;;;;;18.65;5.85;;;8.70;99.90;;;;;;2549543;23;20088;-74
2022/12/24 01:23:31;;;;;;;22.30;5.93;;;8.70;99.90;;;;;;2563945;23;20055;-74
2022/12/24 01:24:32;;;;;;;23.75;5.95;;;8.70;99.90;;;;;;2561724;23;20096;-74
2022/12/24 01:25:32;;;;;;;20.33;5.68;;;8.70;99.90;;;;;;2549955;23;20136;-74
2022/12/24 01:26:33;;;;;;;21.50;5.82;;;8.70;99.90;;;;;;2552115;23;20111;-72
2022/12/24 01:27:34;;;;;;;24.70;5.88;;;8.70;99.90;;;;;;2549975;23;20036;-72
2022/12/24 01:28:34;;;;;;;18.92;5.47;;;8.70;99.90;;;;;;2537331;23;20033;-72
2022/12/24 01:29:35;;;;;;;25.80;6.10;;;8.70;99.90;;;;;;2551273;23;20008;-73
2022/12/24 01:30:35;;;;;;;26.23;6.20;;;8.70;99.90;;;;;;2564288;23;20023;-72
2022/12/24 01:31:37;;;;;;;21.33;5.78;;;8.70;99.90;;;;;;2566483;23;20065;-73
2022/12/24 01:32:38;;;;;;;26.13;5.85;;;8.70;99.90;;;;;;2565663;23;20156;-73
2022/12/24 01:33:39;;;;;;;24.13;6.38;;;8.70;99.90;;;;;;2563347;23;20001;-73
2022/12/24 01:34:40;;;;;;;25.73;5.75;;;8.80;99.90;;;;;;2549389;23;20012;-73
2022/12/24 01:35:42;;;;;;;28.83;6.15;;;8.80;99.90;;;;;;2551657;23;20368;-73
2022/12/24 01:36:42;;;;;;;21.80;5.47;;;8.80;99.90;;;;;;2539339;23;20356;-72
2022/12/24 01:37:43;;;;;;;22.83;6.00;;;8.80;99.90;;;;;;2524738;23;20439;-73
2022/12/24 01:38:43;;;;;;;23.95;5.50;;;8.80;99.90;;;;;;2536777;23;20104;-73
2022/12/24 01:39:44;;;;;;;27.15;5.60;;;8.70;99.90;;;;;;2549304;23;20059;-73
2022/12/24 01:43:37;;;;;;;22.13;5.13;;;8.80;99.90;;;;;;2562118;23;20328;-73
2022/12/24 01:44:43;;;;;;;22.42;5.60;;;8.70;99.90;;;;;;2544235;23;20550;-73
2022/12/24 01:45:47;;;;;;;21.67;5.53;;;8.80;99.90;;;;;;2540127;23;20012;-74
2022/12/24 01:46:50;;;;;;;25.58;5.80;;;8.80;99.90;;;;;;2551540;23;20012;-74
2022/12/24 01:47:51;;;;;;;23.75;5.82;;;8.70;99.90;;;;;;2537371;23;20488;-74
2022/12/24 01:48:58;;;;;;;23.52;5.65;;;8.70;99.90;;;;;;2549242;23;20064;-73
2022/12/24 01:50:11;;;;;;;19.77;5.40;;;8.80;99.90;;;;;;2549019;23;20047;-74
2022/12/24 01:51:25;;;;;;;23.27;5.88;;;8.70;99.90;;;;;;2549233;23;20533;-74
2022/12/24 01:52:30;;;;;;;24.20;5.10;;;8.70;99.90;;;;;;2551971;23;20172;-74
2022/12/24 01:53:33;;;;;;;20.77;4.95;;;8.70;99.90;;;;;;2549256;23;20037;-74
2022/12/24 01:54:54;;;;;;;17.25;4.72;;;8.80;99.90;;;;;;2537304;23;20450;-75
2022/12/24 01:55:54;;;;;;;;;;;8.70;99.90;;;;;;2554178;23;20013;-73
2022/12/24 01:57:00;;;;;;;19.60;4.68;;;8.80;99.90;;;;;;2561688;23;19979;-75
2022/12/24 01:58:04;;;;;;;18.40;4.90;;;8.80;99.90;;;;;;2561782;23;20017;-72
2022/12/24 01:59:08;;;;;;;19.90;5.60;;;8.80;99.90;;;;;;2562395;23;20349;-73
2022/12/24 02:00:12;;;;;;;28.17;5.70;;;8.70;99.90;;;;;;2562059;23;20106;-74
2022/12/24 02:01:12;;;;;;;24.52;5.85;;;8.70;99.90;;;;;;2538602;23;20016;-74
2022/12/24 02:02:14;;;;;;;27.70;5.85;;;8.70;99.90;;;;;;2538983;23;20005;-73
2022/12/24 02:03:14;;;;;;;26.48;5.57;;;8.80;99.90;;;;;;2562250;23;20001;-74
2022/12/24 02:04:33;;;;;;;24.38;5.40;;;8.80;99.90;;;;;;2562335;23;20004;-74
2022/12/24 02:05:45;;;;;;;18.88;4.80;;;8.80;99.90;;;;;;2549295;23;20024;-73
2022/12/24 02:06:46;;;;;;;23.42;5.03;;;8.80;99.90;;;;;;2539033;23;20529;-73
2022/12/24 02:07:47;;;;;;;24.45;5.47;;;8.80;99.90;;;;;;2549274;23;20015;-73
2022/12/24 02:08:48;;;;;;;24.88;5.25;;;8.80;99.90;;;;;;2549250;23;20012;-74
2022/12/24 02:09:54;;;;;;;23.77;4.97;;;8.80;99.90;;;;;;2549144;23;20041;-73
2022/12/24 02:10:55;;;;;;;22.05;4.97;;;8.80;99.90;;;;;;2551075;23;20092;-73
2022/12/24 02:11:56;;;;;;;21.13;5.07;;;8.80;99.90;;;;;;2549148;23;20056;-73
2022/12/24 02:12:58;;;;;;;28.85;5.65;;;8.80;99.90;;;;;;2549269;23;20151;-74
2022/12/24 02:14:00;;;;;;;25.02;5.28;;;8.80;99.90;;;;;;2562414;23;20124;-73
2022/12/24 02:15:01;;;;;;;21.08;5.10;;;8.80;99.90;;;;;;2561367;23;20342;-74
2022/12/24 02:16:30;;;;;;;18.42;4.90;;;8.80;99.90;;;;;;2563749;23;20008;-73
2022/12/24 02:17:34;;;;;;;19.80;5.35;;;8.80;99.90;;;;;;2562138;23;20396;-73
2022/12/24 02:19:05;;;;;;;22.13;4.70;;;8.80;99.90;;;;;;2562111;23;20016;-73
2022/12/24 02:20:34;;;;;;;16.55;4.55;;;8.80;99.90;;;;;;2511706;23;20006;-75
2022/12/24 02:21:52;;;;;;;22.60;4.90;;;8.80;99.90;;;;;;2549048;23;20009;-72
2022/12/24 02:23:22;;;;;;;18.92;4.72;;;8.80;99.90;;;;;;2555061;23;20461;-73
2022/12/24 02:24:25;;;;;;;18.05;4.43;;;8.80;99.90;;;;;;2548858;23;19997;-73
2022/12/24 02:25:35;;;;;;;14.23;4.47;;;8.80;99.90;;;;;;2536837;23;20159;-73
2022/12/24 02:27:06;;;;;;;15.77;4.32;;;8.80;99.90;;;;;;2550985;23;20005;-73
2022/12/24 02:28:21;;;;;;;23.75;4.35;;;8.80;99.90;;;;;;2562365;23;20154;-73
2022/12/24 02:29:27;;;;;;;15.35;3.83;;;8.80;99.90;;;;;;2549193;23;20001;-72
2022/12/24 02:30:36;;;;;;;18.25;4.50;;;8.80;99.90;;;;;;2550521;23;20009;-73
2022/12/24 02:31:51;;;;;;;16.52;4.20;;;8.80;99.90;;;;;;2562349;23;20008;-72
2022/12/24 02:33:19;;;;;;;16.23;4.25;;;8.80;99.90;;;;;;2562275;23;20432;-74
2022/12/24 02:34:31;;;;;;;23.52;4.55;;;8.80;99.90;;;;;;2562126;23;20088;-72
2022/12/24 02:35:40;;;;;;;17.63;4.10;;;8.80;99.90;;;;;;2561987;23;20052;-74
2022/12/24 02:36:48;;;;;;;16.73;4.18;;;8.80;99.90;;;;;;2548857;23;20290;-74
2022/12/24 02:37:57;;;;;;;15.73;4.13;;;8.80;99.90;;;;;;2550267;23;20659;-74
2022/12/24 02:39:05;;;;;;;16.05;4.35;;;8.90;99.90;;;;;;2562150;23;20066;-73
2022/12/24 02:40:10;;;;;;;13.60;3.90;;;8.90;99.90;;;;;;2562338;23;20472;-74
2022/12/24 02:41:22;;;;;;;18.20;4.07;;;8.90;99.90;;;;;;2562204;23;20035;-74
2022/12/24 02:42:30;;;;;;;16.35;3.85;;;8.80;99.90;;;;;;2562189;23;20043;-75
2022/12/24 02:43:35;;;;;;;16.75;4.00;;;8.90;99.90;;;;;;2561844;23;20012;-74
2022/12/24 02:44:57;;;;;;;14.15;4.00;;;8.90;99.90;;;;;;2546502;23;20195;-71
2022/12/24 02:46:03;;;;;;;13.05;3.55;;;9.00;99.90;;;;;;2542909;23;20112;-73
2022/12/24 02:47:06;;;;;;;17.50;3.67;;;8.90;99.90;;;;;;2552223;23;20043;-73
2022/12/24 02:48:08;;;;;;;16.90;3.70;;;8.90;99.90;;;;;;2549244;23;20019;-73
2022/12/24 02:49:08;;;;;;;15.82;4.00;;;8.90;99.90;;;;;;2549296;23;20292;-73
2022/12/24 02:50:11;;;;;;;16.50;3.70;;;8.90;99.90;;;;;;2549101;23;20044;-74
2022/12/24 02:51:12;;;;;;;15.80;3.90;;;9.00;99.90;;;;;;2549477;23;20008;-71
2022/12/24 02:52:28;;;;;;;16.17;3.70;;;9.00;99.90;;;;;;2550779;23;20568;-74
2022/12/24 02:53:29;;;;;;;14.02;3.72;;;9.00;99.90;;;;;;2554625;23;20071;-78
2022/12/24 02:54:31;;;;;;;13.15;3.47;;;9.00;99.90;;;;;;2564090;23;20013;-79
2022/12/24 02:55:46;;;;;;;12.82;3.60;;;9.00;99.90;;;;;;2549024;23;20869;-79
2022/12/24 02:56:56;;;;;;;16.63;3.40;;;9.00;99.90;;;;;;2552239;23;20017;-78
2022/12/24 02:58:18;;;;;;;17.27;3.72;;;9.00;99.90;;;;;;2564583;23;20288;-79
2022/12/24 02:59:21;;;;;;;21.48;3.70;;;8.90;99.90;;;;;;2549057;23;20071;-79
2022/12/24 03:00:23;;;;;;;14.80;3.80;;;9.00;99.90;;;;;;2539104;23;20204;-77
2022/12/24 03:01:51;;;;;;;18.52;4.50;;;8.90;99.90;;;;;;2549395;23;20084;-80
2022/12/24 03:02:51;;;;;;;16.15;4.10;;;8.90;99.90;;;;;;2548922;23;20009;-79
2022/12/24 03:04:38;;;;;;;24.02;4.20;;;9.00;99.90;;;;;;2551248;23;20061;-78
2022/12/24 03:06:09;;;;;;;16.92;3.92;;;8.90;99.90;;;;;;2562712;23;20013;-79
2022/12/24 03:07:16;;;;;;;15.32;3.70;;;8.90;99.90;;;;;;2505628;23;20011;-79
2022/12/24 03:08:32;;;;;;;17.38;3.60;;;8.90;99.90;;;;;;2538190;23;20454;-78
2022/12/24 03:10:09;;;;;;;19.30;3.60;;;8.90;99.90;;;;;;2539982;23;20033;-78
2022/12/24 03:11:13;;;;;;;13.93;3.30;;;8.90;99.90;;;;;;2556693;23;20627;-79
2022/12/24 03:12:20;;;;;;;14.23;3.63;;;8.90;99.90;;;;;;2564690;23;20000;-79
2022/12/24 03:13:22;;;;;;;10.52;3.00;;;9.00;99.90;;;;;;2551574;23;20619;-81
2022/12/24 03:14:25;;;;;;;15.32;3.15;;;9.00;99.90;;;;;;2549632;23;20055;-78
2022/12/24 03:15:27;;;;;;;11.45;3.30;;;9.00;99.90;;;;;;2562287;23;20518;-79
2022/12/24 03:16:28;;;;;;;14.48;3.58;;;9.00;99.90;;;;;;2561577;23;20000;-78
2022/12/24 03:17:29;;;;;;;14.25;3.33;;;9.00;99.90;;;;;;2561707;23;20456;-79
2022/12/24 03:18:31;;;;;;;15.73;3.70;;;9.00;99.90;;;;;;2562172;23;20509;-78
2022/12/24 03:19:33;;;;;;;12.68;3.40;;;9.00;99.90;;;;;;2564314;23;20441;-79
2022/12/24 03:20:40;;;;;;;14.48;3.70;;;9.00;99.90;;;;;;2564601;23;20008;-78
2022/12/24 03:21:41;;;;;;;9.90;3.05;;;9.10;99.90;;;;;;2550280;23;20472;-79
2022/12/24 03:22:42;;;;;;;17.15;3.40;;;9.10;99.90;;;;;;2550175;23;20033;-79
2022/12/24 03:23:43;;;;;;;12.52;3.30;;;9.10;99.90;;;;;;2563916;23;20458;-79
2022/12/24 03:24:43;;;;;;;10.63;2.83;;;9.10;99.90;;;;;;2565995;23;20005;-78
2022/12/24 03:25:44;;;;;;;8.60;2.80;;;9.10;99.90;;;;;;2563650;23;20016;-78
2022/12/24 03:26:45;;;;;;;15.88;3.50;;;9.10;99.90;;;;;;2550406;23;20496;-77
2022/12/24 03:27:46;;;;;;;12.27;3.20;;;9.10;99.90;;;;;;2550567;23;20137;-79
2022/12/24 03:28:48;;;;;;;12.45;2.53;;;9.20;99.90;;;;;;2562905;23;20357;-77
2022/12/24 03:29:48;;;;;;;6.70;2.38;;;9.20;99.90;;;;;;2538987;23;20005;-78
2022/12/24 03:30:49;;;;;;;11.52;3.05;;;9.20;99.90;;;;;;2537535;23;20046;-80
2022/12/24 03:31:51;;;;;;;6.32;2.33;;;9.30;99.90;;;;;;2563685;23;20015;-80
2022/12/24 03:32:52;;;;;;;9.38;2.70;;;9.30;99.90;;;;;;2562332;23;20337;-80
2022/12/24 03:33:53;;;;;;;9.32;2.85;;;9.30;99.90;;;;;;2564820;23;20012;-78
2022/12/24 03:34:54;;;;;;;9.85;2.58;;;9.30;99.90;;;;;;2563283;23;20004;-78
2022/12/24 03:35:54;;;;;;;8.55;2.70;;;9.30;99.90;;;;;;2563348;23;20005;-80
2022/12/24 03:36:55;;;;;;;10.63;2.50;;;9.40;99.90;;;;;;2550011;23;20028;-78
2022/12/24 03:37:55;;;;;;;8.82;2.58;;;9.40;99.90;;;;;;2539621;23;20092;-78
2022/12/24 03:38:56;;;;;;;7.65;2.25;;;9.40;99.90;;;;;;2550446;23;20438;-77
2022/12/24 03:39:57;;;;;;;10.38;2.38;;;9.40;99.90;;;;;;2563392;23;20008;-79
2022/12/24 03:40:58;;;;;;;9.70;2.40;;;9.50;99.90;;;;;;2563600;23;20009;-78
2022/12/24 03:41:58;;;;;;;7.68;2.50;;;9.50;99.90;;;;;;2565978;23;20008;-78
2022/12/24 03:42:59;;;;;;;9.10;2.47;;;9.50;99.90;;;;;;2563530;23;20043;-78
2022/12/24 03:43:59;;;;;;;8.50;2.30;;;9.50;99.90;;;;;;2550031;23;20005;-78
2022/12/24 03:45:00;;;;;;;6.18;2.20;;;9.60;99.90;;;;;;2536407;23;20017;-79
2022/12/24 03:46:05;;;;;;;7.55;2.60;;;9.60;99.90;;;;;;2550994;23;20008;-78
2022/12/24 03:47:06;;;;;;;6.80;2.13;;;9.60;99.90;;;;;;2564705;23;20009;-78
2022/12/24 03:48:07;;;;;;;7.53;2.20;;;9.60;99.90;;;;;;2567652;23;20007;-78
2022/12/24 03:49:07;;;;;;;7.45;2.10;;;9.60;99.90;;;;;;2567303;23;20065;-78
2022/12/24 03:50:08;;;;;;;9.13;2.55;;;9.60;99.90;;;;;;2553572;23;20060;-79
2022/12/24 03:51:25;;;;;;;6.00;2.10;;;9.70;99.90;;;;;;2556503;23;20040;-79
2022/12/24 03:52:26;;;;;;;6.13;2.00;;;9.70;99.90;;;;;;2557296;23;20311;-79
2022/12/24 03:53:26;;;;;;;8.32;2.30;;;9.70;99.90;;;;;;2554442;23;20016;-79
2022/12/24 03:54:27;;;;;;;7.20;1.90;;;9.70;99.90;;;;;;2554296;23;20373;-79
2022/12/24 03:55:27;;;;;;;4.68;1.80;;;9.70;99.90;;;;;;2541174;23;20020;-79
2022/12/24 03:56:28;;;;;;;5.75;2.00;;;9.70;99.90;;;;;;2541487;23;20033;-78
2022/12/24 03:57:29;;;;;;;5.35;2.10;;;9.80;99.90;;;;;;2566667;23;20434;-80
2022/12/24 03:58:29;;;;;;;5.72;1.80;;;9.80;99.90;;;;;;2567456;23;20473;-78
2022/12/24 03:59:30;;;;;;;5.85;1.85;;;9.90;99.90;;;;;;2566948;23;20082;-79
2022/12/24 04:00:30;;;;;;;5.18;1.92;;;9.90;99.90;;;;;;2568642;23;20055;-79
2022/12/24 04:01:31;;;;;;;6.55;2.00;;;9.90;99.90;;;;;;2554212;23;20018;-79
2022/12/24 04:02:31;;;;;;;6.97;1.90;;;9.90;99.90;;;;;;2553964;23;20031;-79
2022/12/24 04:03:32;;;;;;;5.80;1.80;;;9.90;99.90;;;;;;2567143;23;20258;-80
2022/12/24 04:04:35;;;;;;;6.40;1.80;;;10.00;99.90;;;;;;2543550;23;20016;-77
2022/12/24 04:05:36;;;;;;;6.03;1.80;;;10.00;99.90;;;;;;2530685;23;20013;-78
2022/12/24 04:06:36;;;;;;;6.70;1.92;;;10.00;99.90;;;;;;2550281;23;20012;-78
2022/12/24 04:07:37;;;;;;;8.02;2.13;;;10.00;99.90;;;;;;2538039;23;20008;-78
2022/12/24 04:08:38;;;;;;;7.63;2.13;;;10.00;99.90;;;;;;2539837;23;20124;-80
2022/12/24 04:09:39;;;;;;;5.45;1.73;;;10.00;99.90;;;;;;2552192;23;20009;-78
2022/12/24 04:10:39;;;;;;;5.80;2.00;;;10.00;99.90;;;;;;2550315;23;20049;-77
2022/12/24 04:11:40;;;;;;;6.95;1.95;;;10.00;99.90;;;;;;2537751;23;20497;-79
2022/12/24 04:12:41;;;;;;;6.25;1.83;;;10.00;99.90;;;;;;2537691;23;20056;-77
2022/12/24 04:13:41;;;;;;;4.90;1.83;;;10.00;99.90;;;;;;2539648;23;20005;-78
2022/12/24 04:14:42;;;;;;;8.38;2.20;;;10.10;99.90;;;;;;2550083;23;20044;-80
2022/12/24 04:15:42;;;;;;;5.13;1.98;;;10.10;99.90;;;;;;2563487;23;20371;-77
2022/12/24 04:16:43;;;;;;;6.43;1.90;;;10.10;99.90;;;;;;2550476;23;20438;-80
2022/12/24 04:17:43;;;;;;;6.10;1.80;;;10.10;99.90;;;;;;2550122;23;20001;-77
2022/12/24 04:18:44;;;;;;;6.18;1.88;;;10.10;99.90;;;;;;2565322;23;20004;-79
2022/12/24 04:19:44;;;;;;;7.63;2.20;;;10.10;99.90;;;;;;2562712;23;20012;-80
2022/12/24 04:20:45;;;;;;;8.45;2.00;;;10.10;99.90;;;;;;2562332;23;20071;-78
2022/12/24 04:21:46;;;;;;;7.05;2.00;;;10.10;99.90;;;;;;2563591;23;20366;-81
2022/12/24 04:22:46;;;;;;;7.63;2.05;;;10.20;99.90;;;;;;2565614;23;20063;-79
2022/12/24 04:23:47;;;;;;;8.15;2.20;;;10.20;99.90;;;;;;2563249;23;20008;-79
2022/12/24 04:24:48;;;;;;;4.63;1.95;;;10.20;99.90;;;;;;2563298;23;20290;-77
2022/12/24 04:25:48;;;;;;;6.30;1.70;;;10.20;99.90;;;;;;2549817;23;20009;-79
2022/12/24 04:26:49;;;;;;;4.57;1.92;;;10.20;99.90;;;;;;2550158;23;20009;-78
2022/12/24 04:27:49;;;;;;;6.32;1.73;;;10.30;99.90;;;;;;2565240;23;19997;-78
2022/12/24 04:28:50;;;;;;;6.00;2.03;;;10.30;99.90;;;;;;2563088;23;20000;-79
2022/12/24 04:29:50;;;;;;;7.63;1.90;;;10.30;99.90;;;;;;2562536;23;20034;-76
2022/12/24 04:30:51;;;;;;;5.20;1.95;;;10.30;99.90;;;;;;2549698;23;20370;-80
2022/12/24 04:31:51;;;;;;;8.85;2.05;;;10.30;99.90;;;;;;2552005;23;20203;-78
2022/12/24 04:32:52;;;;;;;5.35;1.70;;;10.30;99.90;;;;;;2537939;23;20029;-78
2022/12/24 04:33:52;;;;;;;6.07;1.90;;;10.40;99.90;;;;;;2549839;23;20005;-79
2022/12/24 04:34:53;;;;;;;4.88;1.80;;;10.40;99.90;;;;;;2562918;23;20039;-79
2022/12/24 04:35:56;;;;;;;6.05;2.10;;;10.40;99.90;;;;;;2565262;23;20478;-80
2022/12/24 04:36:57;;;;;;;5.95;1.98;;;10.40;99.90;;;;;;2552114;23;20013;-79
2022/12/24 04:37:58;;;;;;;5.82;1.90;;;10.40;99.90;;;;;;2537749;23;20784;-79
2022/12/24 04:38:58;;;;;;;9.73;2.40;;;10.40;99.90;;;;;;2550020;23;20533;-78
2022/12/24 04:39:59;;;;;;;7.30;2.10;;;10.40;99.90;;;;;;2552183;23;20036;-80
2022/12/24 04:41:04;;;;;;;5.88;2.00;;;10.40;99.90;;;;;;2538600;23;20024;-78
2022/12/24 04:42:05;;;;;;;5.80;1.90;;;10.40;99.90;;;;;;2539447;23;20021;-80
2022/12/24 04:43:05;;;;;;;3.55;1.98;;;10.40;99.90;;;;;;2549419;23;20009;-79
2022/12/24 04:44:08;;;;;;;6.15;1.83;;;10.40;99.90;;;;;;2537142;23;20005;-77
2022/12/24 04:45:08;;;;;;;7.38;2.35;;;10.40;99.90;;;;;;2547571;23;20032;-80
2022/12/24 04:46:17;;;;;;;9.98;2.40;;;10.40;99.90;;;;;;2562946;23;20008;-79
2022/12/24 04:47:18;;;;;;;6.53;2.33;;;10.40;99.90;;;;;;2561953;23;20535;-80
2022/12/24 04:48:18;;;;;;;5.97;2.17;;;10.30;99.90;;;;;;2562288;23;20108;-79
2022/12/24 04:49:19;;;;;;;9.10;2.38;;;10.30;99.90;;;;;;2549386;23;20065;-78
2022/12/24 04:50:19;;;;;;;6.80;2.03;;;10.40;99.90;;;;;;2549619;23;20005;-77
2022/12/24 04:51:20;;;;;;;5.78;2.15;;;10.40;99.90;;;;;;2551066;23;19997;-78
2022/12/24 04:52:21;;;;;;;8.27;2.10;;;10.50;99.90;;;;;;2551931;23;20005;-78
2022/12/24 04:53:21;;;;;;;5.25;2.30;;;10.50;99.90;;;;;;2549750;23;20224;-78
2022/12/24 04:54:22;;;;;;;7.38;2.08;;;10.50;99.90;;;;;;2549657;23;20104;-78
2022/12/24 04:55:22;;;;;;;6.88;1.98;;;10.50;99.90;;;;;;2538942;23;20019;-78
2022/12/24 04:56:26;;;;;;;6.80;2.20;;;10.50;99.90;;;;;;2549774;23;20178;-77
2022/12/24 04:57:27;;;;;;;6.75;2.10;;;10.50;99.90;;;;;;2562888;23;20004;-78
2022/12/24 04:58:27;;;;;;;5.68;1.80;;;10.40;99.90;;;;;;2549836;23;20001;-78
2022/12/24 04:59:28;;;;;;;8.70;2.40;;;10.40;99.90;;;;;;2549709;23;20009;-77
2022/12/24 05:00:29;;;;;;;10.32;2.40;;;10.40;99.90;;;;;;2551712;23;20040;-78
2022/12/24 05:01:31;;;;;;;6.68;2.15;;;10.40;99.90;;;;;;2537218;23;20017;-77
2022/12/24 05:02:31;;;;;;;8.35;2.53;;;10.40;99.90;;;;;;2537499;23;20005;-78
2022/12/24 05:03:32;;;;;;;7.22;2.25;;;10.40;99.90;;;;;;2537230;23;20013;-77
2022/12/24 05:04:33;;;;;;;5.25;2.10;;;10.40;99.90;;;;;;2551712;23;20015;-78
2022/12/24 05:05:34;;;;;;;7.40;2.08;;;10.40;99.90;;;;;;2549330;23;20393;-78
2022/12/24 05:06:34;;;;;;;6.07;2.30;;;10.40;99.90;;;;;;2549644;23;20009;-78
2022/12/24 05:07:35;;;;;;;8.30;2.40;;;10.30;99.90;;;;;;2561926;23;20036;-77
2022/12/24 05:08:35;;;;;;;7.10;2.13;;;10.30;99.90;;;;;;2563015;23;20004;-78
2022/12/24 05:09:36;;;;;;;6.35;2.50;;;10.30;99.90;;;;;;2537180;23;20019;-79
2022/12/24 05:10:36;;;;;;;8.40;2.53;;;10.30;99.90;;;;;;2527307;23;20010;-77
2022/12/24 05:11:37;;;;;;;8.55;2.60;;;10.30;99.90;;;;;;2549440;23;20009;-78
2022/12/24 05:12:37;;;;;;;8.13;2.22;;;10.20;99.90;;;;;;2549507;23;20021;-78
2022/12/24 05:13:38;;;;;;;7.68;2.38;;;10.20;99.90;;;;;;2539380;23;20362;-78
2022/12/24 05:14:39;;;;;;;7.88;2.38;;;10.20;99.90;;;;;;2549421;23;20350;-78
2022/12/24 05:15:40;;;;;;;9.18;2.72;;;10.20;99.90;;;;;;2537180;23;19998;-77
2022/12/24 05:16:40;;;;;;;6.00;2.20;;;10.20;99.90;;;;;;2524885;23;20014;-77
2022/12/24 05:17:41;;;;;;;7.70;2.40;;;10.20;99.90;;;;;;2549531;23;20017;-79
2022/12/24 05:18:41;;;;;;;8.98;2.70;;;10.20;99.90;;;;;;2551739;23;20009;-78
2022/12/24 05:19:42;;;;;;;8.27;2.38;;;10.20;99.90;;;;;;2537077;23;20013;-79
2022/12/24 05:20:43;;;;;;;7.32;2.22;;;10.20;99.90;;;;;;2537151;23;20005;-78
2022/12/24 05:26:20;;;;;;;9.20;2.35;;;10.10;99.90;;;;;;2549412;23;20311;-77
2022/12/24 05:27:02;;;;;;;8.73;2.45;;;10.00;99.90;;;;;;2562745;23;20005;-78
2022/12/24 05:28:03;;;;;;;7.63;2.63;;;10.00;99.90;;;;;;2549350;23;20374;-77
2022/12/24 05:29:05;;;;;;;7.78;2.17;;;10.00;99.90;;;;;;2549453;23;20088;-77
2022/12/24 05:30:06;;;;;;;7.03;2.45;;;10.00;99.90;;;;;;2551916;23;20202;-77
2022/12/24 05:31:06;;;;;;;6.43;2.42;;;9.90;99.90;;;;;;2549513;23;19997;-77
2022/12/24 05:32:07;;;;;;;9.32;2.55;;;9.90;99.90;;;;;;2549555;23;20009;-77
2022/12/24 05:33:07;;;;;;;13.68;2.55;;;9.90;99.90;;;;;;2537009;23;20273;-77
2022/12/24 05:34:09;;;;;;;7.28;2.53;;;9.90;99.90;;;;;;2551798;23;20305;-77
2022/12/24 05:35:09;;;;;;;7.70;2.40;;;9.90;99.90;;;;;;2536926;23;20401;-79
2022/12/24 05:36:10;;;;;;;9.48;2.60;;;9.90;99.90;;;;;;2536902;23;20076;-78
2022/12/24 05:37:11;;;;;;;8.18;2.55;;;9.90;99.90;;;;;;2549371;23;20715;-77
2022/12/24 05:38:11;;;;;;;5.30;2.20;;;9.80;99.90;;;;;;2537245;23;20080;-76